Time;durP1;ratioP1;P1;durP2;ratioP2;P2;SDS_P1;SDS_P2;PMS_P1;PMS_P2;Temp;Humidity;BMP_temperature;BMP_pressure;BME280_temperature;BME280_humidity;BME280_pressure;Samples;Min_cycle;Max_cycle;Signal;HPM_P1;HPM_P2
2022/05/06 00:00:11;;;;;;;;;;;;;;;12.98;89.86;101129.69;5058641;28;19932;-86
2022/05/06 00:02:56;;;;;;;;;;;;;;;12.95;90.26;101122.16;5055117;28;19912;-85
2022/05/06 00:05:40;;;;;;;;;;;;;;;12.97;90.32;101123.44;5059156;28;20381;-86
2022/05/06 00:08:25;;;;;;;;;;;;;;;13.04;90.05;101136.63;5058363;28;19913;-86
2022/05/06 00:11:09;;;;;;;;;;;;;;;13.13;89.14;101127.31;5058413;28;19920;-86
2022/05/06 00:13:54;;;;;;;;;;;;;;;13.15;88.73;101125.09;5058313;28;20308;-86
2022/05/06 00:16:38;;;;;;;;;;;;;;;13.19;88.07;101122.50;5058698;28;19917;-86
2022/05/06 00:19:23;;;;;;;;;;;;;;;13.28;87.57;101128.75;5061098;28;20388;-87
2022/05/06 00:22:08;;;;;;;;;;;;;;;13.30;87.62;101121.06;5062164;28;19920;-89
2022/05/06 00:24:56;;;;;;;;;;;;;;;13.36;86.17;101125.19;5064293;28;19913;-88
2022/05/06 00:27:41;;;;;;;;;;;;;;;13.38;85.88;101122.16;5064833;28;19913;-89
2022/05/06 00:30:25;;;;;;;;;;;;;;;13.46;85.60;101129.56;5065590;28;20305;-88
2022/05/06 00:33:10;;;;;;;;;;;;;;;13.51;85.30;101129.38;5059584;28;19912;-91
2022/05/06 00:35:55;;;;;;;;;;;;;;;13.52;84.86;101120.03;5056856;28;19913;-90
2022/05/06 00:38:42;;;;;;;;;;;;;;;13.55;84.90;101122.94;5063027;28;19913;-91
2022/05/06 00:41:30;;;;;;;;;;;;;;;13.54;83.89;101112.31;5063236;28;19913;-90
2022/05/06 00:44:14;;;;;;;;;;;;;;;13.49;84.10;101116.03;5061398;28;19912;-91
2022/05/06 00:46:59;;;;;;;;;;;;;;;13.49;84.31;101107.84;5058948;28;19913;-90
2022/05/06 00:49:44;;;;;;;;;;;;;;;13.53;84.09;101111.53;5062442;28;19917;-90
2022/05/06 00:52:28;;;;;;;;;;;;;;;13.47;83.63;101101.88;5053213;28;19913;-90
2022/05/06 00:55:13;;;;;;;;;;;;;;;13.47;83.55;101101.88;5064736;28;19912;-90
2022/05/06 00:57:58;;;;;;;;;;;;;;;13.51;83.88;101099.31;5064370;28;19913;-90
2022/05/06 01:00:42;;;;;;;;;;;;;;;13.52;83.65;101098.16;5064568;28;19912;-88
2022/05/06 01:03:26;;;;;;;;;;;;;;;13.56;83.17;101094.47;5062374;28;20319;-90
2022/05/06 01:06:13;;;;;;;;;;;;;;;13.52;83.29;101088.06;5064614;28;20304;-89
2022/05/06 01:08:59;;;;;;;;;;;;;;;13.59;83.43;101095.75;5058443;28;19913;-90
2022/05/06 01:11:44;;;;;;;;;;;;;;;13.65;82.87;101091.72;5062858;28;19917;-90
2022/05/06 01:14:33;;;;;;;;;;;;;;;13.60;83.54;101100.09;5063348;28;20376;-89
2022/05/06 01:17:23;;;;;;;;;;;;;;;13.56;83.20;101102.66;5057010;28;19912;-87
2022/05/06 01:20:08;;;;;;;;;;;;;;;13.64;83.19;101103.78;5057050;28;19912;-87
2022/05/06 01:23:00;;;;;;;;;;;;;;;13.64;83.38;101110.03;5058621;28;19913;-89
2022/05/06 01:25:46;;;;;;;;;;;;;;;13.62;83.00;101098.63;5056005;28;19912;-86
2022/05/06 01:28:33;;;;;;;;;;;;;;;13.64;82.89;101099.13;5070808;28;19913;-85
2022/05/06 01:31:22;;;;;;;;;;;;;;;13.63;83.10;101093.97;5061582;28;19920;-87
2022/05/06 01:34:09;;;;;;;;;;;;;;;13.66;82.98;101085.13;5101392;22;19921;-78
2022/05/06 01:36:55;;;;;;;;;;;;;;;13.68;82.55;101085.59;5087286;28;19917;-77
2022/05/06 01:39:42;;;;;;;;;;;;;;;13.68;82.86;101086.41;5086628;28;19912;-77
2022/05/06 01:42:29;;;;;;;;;;;;;;;13.69;82.85;101085.28;5078177;28;19912;-78
2022/05/06 01:45:22;;;;;;;;;;;;;;;13.68;82.55;101085.59;5045261;28;19913;-78
2022/05/06 01:48:09;;;;;;;;;;;;;;;13.68;82.95;101085.59;5060072;28;19912;-78
2022/05/06 01:50:55;;;;;;;;;;;;;;;13.67;83.39;101084.78;5066633;28;20388;-79
2022/05/06 01:53:42;;;;;;;;;;;;;;;13.58;83.67;101081.28;5061051;28;19913;-78
2022/05/06 01:56:28;;;;;;;;;;;;;;;13.63;83.89;101080.31;5066662;28;19912;-79
2022/05/06 01:59:14;;;;;;;;;;;;;;;13.59;84.40;101071.16;5071036;28;19913;-79
2022/05/06 02:01:59;;;;;;;;;;;;;;;13.60;83.61;101070.84;5081252;28;19912;-78
2022/05/06 02:07:56;;;;;;;;;;;;;;;13.66;83.30;101077.72;5088417;28;19924;-78
2022/05/06 02:10:42;;;;;;;;;;;;;;;13.64;83.10;101074.53;5091738;28;19916;-77
2022/05/06 02:13:27;;;;;;;;;;;;;;;13.68;83.36;101061.81;5089365;28;19912;-78
2022/05/06 02:16:37;;;;;;;;;;;;;;;13.66;83.82;101069.50;5066002;28;19912;-78
2022/05/06 02:19:37;;;;;;;;;;;;;;;13.67;84.24;101065.66;5064960;28;19913;-78
2022/05/06 02:22:42;;;;;;;;;;;;;;;13.71;83.90;101061.13;5075117;28;19912;-79
2022/05/06 02:25:56;;;;;;;;;;;;;;;13.71;83.84;101060.34;5085720;28;19913;-78
2022/05/06 02:28:59;;;;;;;;;;;;;;;13.76;83.64;101048.44;5085443;28;19913;-77
2022/05/06 02:34:50;;;;;;;;;;;;;;;13.72;83.70;101042.81;5087096;28;19917;-77
2022/05/06 02:37:36;;;;;;;;;;;;;;;13.75;83.76;101044.09;5050852;28;19913;-78
2022/05/06 02:40:22;;;;;;;;;;;;;;;13.77;83.78;101044.56;5055227;28;19912;-78
2022/05/06 02:43:07;;;;;;;;;;;;;;;13.84;83.82;101039.38;5073835;28;19913;-76
2022/05/06 02:45:54;;;;;;;;;;;;;;;13.81;83.58;101048.25;5073040;28;19912;-77
2022/05/06 02:48:39;;;;;;;;;;;;;;;13.80;83.49;101038.44;5073169;28;19942;-77
2022/05/06 02:51:28;;;;;;;;;;;;;;;13.82;83.44;101041.63;5074562;28;20300;-77
2022/05/06 02:54:15;;;;;;;;;;;;;;;13.83;83.09;101041.31;5076897;28;19920;-77
2022/05/06 02:57:00;;;;;;;;;;;;;;;13.81;83.01;101051.00;5093592;28;19913;-77
2022/05/06 02:59:47;;;;;;;;;;;;;;;13.83;83.43;101043.25;5069848;28;19912;-77
2022/05/06 03:02:35;;;;;;;;;;;;;;;13.87;82.70;101038.72;5070165;28;19912;-77
2022/05/06 03:05:24;;;;;;;;;;;;;;;13.91;82.23;101039.69;5068002;28;19912;-77
2022/05/06 03:08:08;;;;;;;;;;;;;;;13.88;82.05;101035.66;5076515;28;19920;-77
2022/05/06 03:10:53;;;;;;;;;;;;;;;13.97;81.98;101032.88;5080177;28;20539;-78
2022/05/06 03:13:38;;;;;;;;;;;;;;;13.93;81.07;101035.47;5073611;28;20299;-77
2022/05/06 03:16:27;;;;;;;;;;;;;;;13.94;81.60;101034.34;5073840;28;19913;-77
2022/05/06 03:19:12;;;;;;;;;;;;;;;13.96;80.53;101034.03;5079465;28;19912;-78
2022/05/06 03:21:58;;;;;;;;;;;;;;;13.93;80.38;101032.75;5070118;28;19913;-77
2022/05/06 03:24:43;;;;;;;;;;;;;;;13.93;79.67;101038.22;5082683;28;19912;-77
2022/05/06 03:30:37;;;;;;;;;;;;;;;13.84;79.21;101036.66;5054427;28;19917;-77
2022/05/06 03:33:42;;;;;;;;;;;;;;;13.84;78.52;101037.47;5037462;28;19913;-77
2022/05/06 03:36:37;;;;;;;;;;;;;;;13.86;78.58;101040.69;5056027;28;19913;-77
2022/05/06 03:39:26;;;;;;;;;;;;;;;13.70;79.75;101040.41;5047817;28;19913;-79
2022/05/06 03:42:19;;;;;;;;;;;;;;;13.56;80.70;101045.28;5073086;28;19917;-78
2022/05/06 03:45:06;;;;;;;;;;;;;;;13.49;80.66;101042.25;5067678;28;19912;-77
2022/05/06 03:47:52;;;;;;;;;;;;;;;13.42;81.19;101049.34;5061797;28;19917;-77
2022/05/06 03:53:43;;;;;;;;;;;;;;;13.48;81.15;101042.59;5081607;28;19913;-78
2022/05/06 03:56:28;;;;;;;;;;;;;;;13.48;81.53;101046.13;5046064;28;19913;-78
2022/05/06 03:59:16;;;;;;;;;;;;;;;13.50;80.88;101041.16;5072544;28;19921;-78
2022/05/06 04:02:06;;;;;;;;;;;;;;;13.53;81.26;101039.66;5052370;28;19909;-78
2022/05/06 04:04:51;;;;;;;;;;;;;;;13.56;81.25;101044.50;5077366;28;19913;-78
2022/05/06 04:07:37;;;;;;;;;;;;;;;13.65;81.04;101050.72;5096230;28;19912;-78
2022/05/06 04:10:22;;;;;;;;;;;;;;;13.64;80.54;101039.00;5079753;28;19917;-78
2022/05/06 04:13:09;;;;;;;;;;;;;;;13.69;80.35;101038.81;5104354;28;19932;-78
2022/05/06 04:15:53;;;;;;;;;;;;;;;13.73;80.35;101040.88;5079817;28;19912;-77
2022/05/06 04:18:39;;;;;;;;;;;;;;;13.73;79.74;101044.41;5072164;28;19917;-78
2022/05/06 04:24:29;;;;;;;;;;;;;;;13.66;80.29;101055.06;5062580;28;19912;-78
2022/05/06 04:27:14;;;;;;;;;;;;;;;13.66;80.54;101060.53;5064762;28;20381;-78
2022/05/06 04:29:58;;;;;;;;;;;;;;;13.70;79.96;101056.81;5067349;28;19912;-77
2022/05/06 04:32:49;;;;;;;;;;;;;;;13.61;80.56;101063.44;5075439;28;19917;-77
2022/05/06 04:35:34;;;;;;;;;;;;;;;13.65;81.08;101064.41;5077712;28;19913;-77
2022/05/06 04:38:22;;;;;;;;;;;;;;;13.54;82.31;101066.69;5091638;28;19912;-78
2022/05/06 04:41:07;;;;;;;;;;;;;;;13.57;82.34;101062.47;5092653;28;19912;-78
2022/05/06 04:43:53;;;;;;;;;;;;;;;13.52;82.96;101066.19;5085852;28;19912;-78
2022/05/06 04:46:40;;;;;;;;;;;;;;;13.62;82.36;101065.84;5070537;28;19916;-78
2022/05/06 04:49:25;;;;;;;;;;;;;;;13.71;82.09;101068.56;5058201;28;19912;-78
2022/05/06 04:52:09;;;;;;;;;;;;;;;13.63;82.33;101075.66;5052486;28;20317;-78
2022/05/06 04:54:55;;;;;;;;;;;;;;;13.55;83.68;101079.22;5054879;28;19916;-78
2022/05/06 04:57:39;;;;;;;;;;;;;;;13.58;83.72;101086.75;5045581;28;19917;-78
2022/05/06 05:00:25;;;;;;;;;;;;;;;13.64;82.53;101082.72;5050302;28;20301;-78
2022/05/06 05:03:10;;;;;;;;;;;;;;;13.66;82.39;101077.72;5063158;28;19913;-78
2022/05/06 05:05:57;;;;;;;;;;;;;;;13.76;82.06;101075.78;5045657;28;19913;-77
2022/05/06 05:08:42;;;;;;;;;;;;;;;13.73;81.90;101074.47;5065752;28;19920;-77
2022/05/06 05:11:29;;;;;;;;;;;;;;;13.78;82.22;101074.31;5062669;28;19916;-78
2022/05/06 05:14:21;;;;;;;;;;;;;;;13.78;82.17;101073.50;5049538;28;19913;-77
2022/05/06 05:17:06;;;;;;;;;;;;;;;13.85;81.57;101079.28;5047056;28;19913;-78
2022/05/06 05:19:52;;;;;;;;;;;;;;;13.85;81.71;101073.81;5049413;28;19913;-78
2022/05/06 05:22:37;;;;;;;;;;;;;;;13.82;82.41;101082.63;5046885;28;19912;-77
2022/05/06 05:25:25;;;;;;;;;;;;;;;13.82;82.67;101088.91;5053844;28;20456;-78
2022/05/06 05:28:10;;;;;;;;;;;;;;;13.86;82.67;101083.63;5065199;28;19912;-79
2022/05/06 05:30:58;;;;;;;;;;;;;;;13.83;82.59;101081.50;5056331;28;19917;-79
2022/05/06 05:33:43;;;;;;;;;;;;;;;13.76;83.58;101083.97;5075563;28;19913;-78
2022/05/06 05:36:27;;;;;;;;;;;;;;;13.84;83.41;101077.66;5038523;28;19913;-79
2022/05/06 05:39:14;;;;;;;;;;;;;;;13.94;83.40;101077.28;5054575;28;19935;-79
2022/05/06 05:41:58;;;;;;;;;;;;;;;13.88;83.13;101086.81;5040298;28;19913;-80
2022/05/06 05:51:01;;;;;;;;;;;;;;;14.07;81.95;101084.44;5037094;28;19980;-78
2022/05/06 05:53:53;;;;;;;;;;;;;;;14.13;81.96;101083.16;5050857;28;19913;-78
2022/05/06 05:56:39;;;;;;;;;;;;;;;14.17;81.12;101086.81;5041421;28;19917;-78
2022/05/06 05:59:27;;;;;;;;;;;;;;;14.19;81.43;101090.03;5067337;28;20337;-78
2022/05/06 06:02:19;;;;;;;;;;;;;;;14.26;80.87;101093.06;5065917;28;20369;-78
2022/05/06 06:05:07;;;;;;;;;;;;;;;14.20;80.84;101088.91;5068027;28;19912;-78
2022/05/06 06:07:51;;;;;;;;;;;;;;;14.28;80.91;101092.72;5049918;28;19913;-77
2022/05/06 06:10:39;;;;;;;;;;;;;;;14.30;80.51;101091.25;5079024;28;19916;-78
2022/05/06 06:13:26;;;;;;;;;;;;;;;14.27;80.23;101089.19;5064791;28;19912;-80
2022/05/06 06:16:12;;;;;;;;;;;;;;;14.38;80.35;101089.63;5083603;28;19913;-80
2022/05/06 06:18:58;;;;;;;;;;;;;;;14.36;80.47;101097.34;5070244;28;19917;-79
2022/05/06 06:21:44;;;;;;;;;;;;;;;14.29;80.27;101099.78;5043839;28;19913;-79
2022/05/06 06:24:30;;;;;;;;;;;;;;;14.32;80.54;101102.69;5043774;28;19913;-79
2022/05/06 06:27:16;;;;;;;;;;;;;;;14.26;80.16;101101.28;5037334;28;19913;-79
2022/05/06 06:30:01;;;;;;;;;;;;;;;14.28;80.06;101109.94;5060197;28;19912;-79
2022/05/06 06:32:45;;;;;;;;;;;;;;;14.35;80.53;101102.00;5059981;28;19916;-79
2022/05/06 06:35:30;;;;;;;;;;;;;;;14.43;80.22;101109.38;5060197;28;19913;-78
2022/05/06 06:38:18;;;;;;;;;;;;;;;14.48;79.96;101102.91;5049376;28;19917;-79
2022/05/06 06:41:04;;;;;;;;;;;;;;;14.47;79.37;101107.63;5047137;28;19912;-79
2022/05/06 06:43:49;;;;;;;;;;;;;;;14.60;79.39;101110.41;5051994;28;20373;-79
2022/05/06 06:47:00;;;;;;;;;;;;;;;14.54;78.67;101107.88;5040204;28;19913;-79
2022/05/06 06:50:05;;;;;;;;;;;;;;;14.62;78.92;101110.91;5049134;28;20293;-79
2022/05/06 06:53:09;;;;;;;;;;;;;;;14.68;78.40;101112.31;5070486;28;19924;-78
2022/05/06 06:55:55;;;;;;;;;;;;;;;14.71;78.24;101108.91;5097745;28;19912;-82
2022/05/06 06:58:39;;;;;;;;;;;;;;;14.69;78.46;101111.97;5070393;28;19916;-83
2022/05/06 07:01:23;;;;;;;;;;;;;;;14.73;78.64;101114.84;5053218;28;19921;-83
2022/05/06 07:04:08;;;;;;;;;;;;;;;14.77;78.42;101119.31;5051551;28;20147;-83
2022/05/06 07:12:59;;;;;;;;;;;;;;;15.70;75.54;101126.22;5057905;28;19921;-78
2022/05/06 07:15:44;;;;;;;;;;;;;;;15.95;73.16;101127.88;5059503;28;19912;-80
2022/05/06 07:18:31;;;;;;;;;;;;;;;16.20;72.45;101129.47;5054318;28;19912;-79
2022/05/06 07:21:15;;;;;;;;;;;;;;;16.13;73.31;101122.97;5075475;28;19912;-80
2022/05/06 07:24:00;;;;;;;;;;;;;;;16.36;72.46;101126.84;5069992;28;19912;-79
2022/05/06 07:26:46;;;;;;;;;;;;;;;16.05;73.03;101132.91;5035390;28;19913;-79
2022/05/06 07:29:31;;;;;;;;;;;;;;;16.06;72.33;101139.19;5034725;28;19916;-79
2022/05/06 07:32:15;;;;;;;;;;;;;;;15.97;73.55;101138.50;5056810;28;19921;-77
2022/05/06 07:35:01;;;;;;;;;;;;;;;15.81;72.59;101141.09;5087653;22;19921;-79
2022/05/06 07:37:46;;;;;;;;;;;;;;;15.77;74.01;101135.50;5069142;28;20304;-80
2022/05/06 07:40:34;;;;;;;;;;;;;;;15.52;74.70;101142.06;5088073;28;19909;-83
2022/05/06 07:43:19;;;;;;;;;;;;;;;15.57;74.62;101150.06;5054316;28;19921;-80
2022/05/06 07:46:03;;;;;;;;;;;;;;;15.90;73.60;101143.78;5041856;28;19913;-80
2022/05/06 07:48:48;;;;;;;;;;;;;;;15.61;74.57;101148.25;5048246;28;19912;-80
2022/05/06 07:51:33;;;;;;;;;;;;;;;15.57;75.38;101146.53;5035366;28;20328;-81
2022/05/06 07:54:17;;;;;;;;;;;;;;;15.59;74.62;101149.75;5026097;28;19913;-80
2022/05/06 07:57:02;;;;;;;;;;;;;;;15.83;74.68;101144.31;5033888;28;19913;-80
2022/05/06 07:59:47;;;;;;;;;;;;;;;15.66;75.03;101148.03;5035945;28;19913;-82
2022/05/06 08:05:37;;;;;;;;;;;;;;;16.20;71.98;101150.66;5029340;28;19913;-82
2022/05/06 08:08:22;;;;;;;;;;;;;;;16.20;71.46;101145.94;5036646;28;19913;-81
2022/05/06 08:11:06;;;;;;;;;;;;;;;16.24;71.66;101146.09;5043561;28;19916;-81
2022/05/06 08:13:52;;;;;;;12.47;7.63;;;;;;;16.25;71.48;101156.69;5050406;28;20461;-80
2022/05/06 08:16:37;;;;;;;83.82;19.02;;;;;;;16.25;71.99;101148.47;5051679;28;20524;-80
2022/05/06 08:19:21;;;;;;;25.52;8.18;;;;;;;16.27;71.20;101146.19;5030706;28;20045;-79
2022/05/06 08:22:06;;;;;;;7.43;5.38;;;;;;;16.34;70.69;101144.81;5026395;28;20041;-80
2022/05/06 08:24:51;;;;;;;7.43;6.63;;;;;;;16.32;70.76;101147.09;5031600;28;20053;-79
2022/05/06 08:27:39;;;;;;;;;;;;;;;16.39;70.20;101152.81;5031986;28;20052;-81
2022/05/06 08:30:24;;;;;;;9.25;6.68;;;;;;;16.45;70.10;101146.78;5021484;28;19912;-81
2022/05/06 08:33:09;;;;;;;7.15;5.25;;;;;;;16.47;70.15;101151.91;5031020;28;20056;-82
2022/05/06 08:35:54;;;;;;;;;;;;;;;16.46;70.14;101161.28;5044617;28;20060;-80
2022/05/06 08:38:38;;;;;;;9.07;5.53;;;;;;;16.46;69.92;101159.31;5028772;28;19913;-78
2022/05/06 08:41:24;;;;;;;13.15;6.03;;;;;;;16.50;69.96;101157.53;5032440;28;20052;-80
2022/05/06 08:53:32;;;;;;;8.13;5.32;;;;;;;16.57;69.93;101165.16;5029703;28;20132;-84
2022/05/06 08:56:17;;;;;;;8.07;5.35;;;;;;;16.64;69.69;101159.94;5016008;28;20052;-80
2022/05/06 08:59:02;;;;;;;;;;;;;;;16.62;69.29;101173.19;5027005;28;20052;-79
2022/05/06 09:01:47;;;;;;;8.15;5.70;;;;;;;16.58;69.53;101166.78;5027307;28;20990;-80
2022/05/06 09:04:39;;;;;;;11.32;5.05;;;;;;;16.58;69.42;101164.03;5031107;28;20055;-80
2022/05/06 09:07:25;;;;;;;6.10;5.50;;;;;;;16.52;69.28;101168.13;5024579;28;20057;-79
2022/05/06 09:10:12;;;;;;;7.45;5.20;;;;;;;16.48;69.52;101172.72;5019412;28;20049;-81
2022/05/06 09:13:00;;;;;;;9.13;4.53;;;;;;;16.52;69.65;101173.63;5023610;28;20053;-78
2022/05/06 09:18:48;;;;;;;7.65;5.07;;;;;;;16.56;69.80;101178.09;5026896;28;20685;-78
2022/05/06 09:21:33;;;;;;;7.72;5.30;;;;;;;16.51;69.49;101180.25;5038862;28;20053;-78
2022/05/06 09:24:19;;;;;;;8.05;5.50;;;;;;;16.51;69.51;101189.28;5044042;28;20052;-77
2022/05/06 09:27:10;;;;;;;8.30;4.50;;;;;;;16.52;69.84;101185.41;5045192;28;20052;-79
2022/05/06 09:29:54;;;;;;;9.35;4.95;;;;;;;16.40;69.88;101199.16;5048659;28;20393;-79
2022/05/06 09:32:39;;;;;;;10.20;4.95;;;;;;;16.37;70.12;101188.84;5029280;28;20418;-80
2022/05/06 09:35:30;;;;;;;11.05;4.95;;;;;;;16.44;70.45;101197.31;5036161;28;20052;-78
2022/05/06 09:38:16;;;;;;;6.28;5.38;;;;;;;16.43;70.40;101192.16;5030255;28;20037;-82
2022/05/06 09:41:19;;;;;;;5.45;4.65;;;;;;;16.45;70.89;101195.38;5031308;28;20048;-81
2022/05/06 09:44:06;;;;;;;8.27;5.25;;;;;;;16.24;71.32;101204.50;5035947;28;20052;-80
2022/05/06 09:47:09;;;;;;;16.42;6.97;;;;;;;16.18;71.91;101207.81;5041413;28;20056;-79
2022/05/06 09:49:54;;;;;;;6.07;4.80;;;;;;;16.16;72.10;101210.09;5037713;28;20056;-79
2022/05/06 09:52:39;;;;;;;6.72;5.53;;;;;;;16.12;72.65;101203.69;5024962;28;20072;-80
2022/05/06 09:55:23;;;;;;;;;;;;;;;16.14;73.16;101213.19;5033798;28;20064;-79
2022/05/06 09:58:09;;;;;;;8.00;6.20;;;;;;;16.02;73.79;101215.91;5028699;28;19913;-79
2022/05/06 10:00:54;;;;;;;7.72;6.28;;;;;;;15.94;74.66;101219.53;5031485;28;20061;-79
2022/05/06 10:03:39;;;;;;;;;;;;;;;15.88;75.54;101211.88;5037645;28;20053;-81
2022/05/06 10:06:25;;;;;;;7.00;6.22;;;;;;;15.92;75.47;101215.53;5031325;28;20468;-79
2022/05/06 10:09:10;;;;;;;10.57;5.80;;;;;;;15.90;75.42;101213.13;5040946;28;20048;-79
2022/05/06 10:11:58;;;;;;;7.82;6.15;;;;;;;15.99;75.25;101218.53;5025126;28;20049;-79
2022/05/06 10:14:44;;;;;;;8.50;6.22;;;;;;;15.89;75.28;101211.53;5029952;28;20274;-80
2022/05/06 10:18:07;;;;;;;6.25;5.53;;;;;;;15.83;75.21;101215.63;5027557;28;20053;-80
2022/05/06 10:20:52;;;;;;;9.50;6.10;;;;;;;15.69;75.36;101215.94;5035332;28;20695;-78
2022/05/06 10:23:50;;;;;;;10.75;6.40;;;;;;;15.58;76.57;101208.44;5035686;28;20048;-80
2022/05/06 10:26:37;;;;;;;9.45;6.60;;;;;;;15.60;76.81;101214.38;5040385;28;20540;-80
2022/05/06 10:32:53;;;;;;;9.32;7.45;;;;;;;15.70;77.08;101211.22;5030064;28;20072;-79
2022/05/06 10:35:41;;;;;;;6.40;5.78;;;;;;;15.67;76.83;101206.41;5034850;28;20096;-80
2022/05/06 10:38:26;;;;;;;10.02;7.55;;;;;;;15.65;77.02;101205.94;5015242;28;20048;-79
2022/05/06 10:41:22;;;;;;;9.63;7.45;;;;;;;15.60;77.06;101208.91;5036352;28;20052;-80
2022/05/06 10:44:06;;;;;;;6.28;5.68;;;;;;;15.61;77.10;101207.75;5026175;28;20044;-82
2022/05/06 10:46:52;;;;;;;10.13;7.47;;;;;;;15.69;76.70;101204.97;5035563;28;20049;-79
2022/05/06 10:49:37;;;;;;;9.82;6.93;;;;;;;15.77;76.79;101211.47;5026313;28;20549;-80
2022/05/06 10:52:25;;;;;;;10.15;7.65;;;;;;;15.88;76.34;101204.44;5026205;28;20052;-80
2022/05/06 10:55:12;;;;;;;10.63;7.03;;;;;;;15.91;76.33;101209.22;5029159;28;20154;-80
2022/05/06 10:58:03;;;;;;;8.00;7.18;;;;;;;15.92;75.31;101199.88;5032119;28;20048;-81
2022/05/06 11:00:48;;;;;;;10.02;6.13;;;;;;;16.00;75.29;101198.97;5034549;28;20053;-79
2022/05/06 11:03:32;;;;;;;11.00;5.57;;;;;;;16.09;75.10;101201.63;5035420;28;20048;-80
2022/05/06 11:06:20;;;;;;;;;;;;;;;16.18;75.06;101197.66;5035790;28;20040;-81
2022/05/06 11:09:05;;;;;;;11.32;6.43;;;;;;;16.21;74.60;101201.63;5033076;28;19957;-81
2022/05/06 11:11:49;;;;;;;;;;;;;;;16.30;74.45;101199.59;5027080;28;20049;-80
2022/05/06 11:14:35;;;;;;;;;;;;;;;16.02;72.84;101193.94;5032120;28;19913;-81
2022/05/06 11:17:19;;;;;;;;;;;;;;;15.79;73.65;101190.03;5028949;28;19913;-80
2022/05/06 11:20:19;;;;;;;;;;;;;;;15.71;74.37;101194.44;5024400;28;19913;-81
2022/05/06 11:23:03;;;;;;;;;;;;;;;15.63;73.91;101186.31;5025231;28;19917;-81
2022/05/06 11:25:48;;;;;;;;;;;;;;;15.51;74.39;101191.69;5026738;28;20333;-78
2022/05/06 11:28:33;;;;;;;;;;;;;;;15.41;74.74;101192.91;5023643;28;19913;-79
2022/05/06 11:31:18;;;;;;;;;;;;;;;15.35;75.31;101197.00;5023055;28;19913;-80
2022/05/06 11:34:07;;;;;;;;;;;;;;;15.40;75.74;101188.56;5023284;28;19913;-81
2022/05/06 11:36:52;;;;;;;;;;;;;;;15.39;76.25;101200.66;5025632;28;19913;-81
2022/05/06 11:39:37;;;;;;;;;;;;;;;15.35;76.81;101197.81;5022926;28;20304;-81
2022/05/06 11:42:22;;;;;;;;;;;;;;;15.30;77.60;101195.25;5024499;28;19913;-80
2022/05/06 11:48:22;;;;;;;;;;;;;;;15.22;77.16;101190.66;5024432;28;20289;-81
2022/05/06 11:51:07;;;;;;;;;;;;;;;15.24;78.30;101190.31;5025136;28;19913;-77
2022/05/06 11:53:52;;;;;;;;;;;;;;;15.20;78.10;101187.44;5023645;28;20296;-80
2022/05/06 11:56:38;;;;;;;;;;;;;;;15.16;78.45;101193.94;5022747;28;19913;-79
2022/05/06 11:59:23;;;;;;;;;;;;;;;15.21;79.12;101197.28;5024123;28;19917;-79
2022/05/06 12:02:09;;;;;;;;;;;;;;;15.19;78.72;101193.25;5025218;28;19913;-80
2022/05/06 12:04:54;;;;;;;;;;;;;;;15.14;79.19;101185.25;5027135;28;19917;-79
2022/05/06 12:07:44;;;;;;;;;;;;;;;15.19;79.33;101188.59;5027289;28;19913;-79
2022/05/06 12:10:30;;;;;;;;;;;;;;;15.15;79.76;101184.91;5028496;28;19913;-79
2022/05/06 12:13:15;;;;;;;;;;;;;;;15.11;80.36;101183.97;5020351;28;19917;-80
2022/05/06 12:16:12;;;;;;;;;;;;;;;15.19;79.87;101183.09;5033759;28;20317;-79
2022/05/06 12:18:58;;;;;;;;;;;;;;;15.22;79.79;101179.72;5044443;28;19913;-78
2022/05/06 12:21:43;;;;;;;;;;;;;;;15.28;79.01;101175.63;5021495;28;19917;-79
2022/05/06 12:24:38;;;;;;;;;;;;;;;15.27;78.40;101187.72;5019857;28;19921;-78
2022/05/06 12:27:27;;;;;;;;;;;;;;;15.16;79.74;101183.78;5022592;28;19917;-79
2022/05/06 12:30:16;;;;;;;;;;;;;;;15.24;79.65;101184.84;5030558;28;19913;-79
2022/05/06 12:33:12;;;;;;;;;;;;;;;15.24;79.97;101182.91;5029344;28;19921;-79
2022/05/06 12:35:56;;;;;;;;;;;;;;;15.29;79.54;101185.44;5039507;28;19913;-81
2022/05/06 12:38:45;;;;;;;;;;;;;;;15.28;79.22;101180.31;5021080;28;20327;-80
2022/05/06 12:41:34;;;;;;;;;;;;;;;15.32;79.37;101187.53;5020468;28;19917;-79
2022/05/06 12:44:24;;;;;;;;;;;;;;;15.29;79.21;101177.22;5020609;28;19913;-79
2022/05/06 12:47:12;;;;;;;;;;;;;;;15.34;78.99;101185.22;5028733;28;19921;-79
2022/05/06 12:49:57;;;;;;;;;;;;;;;15.31;78.50;101180.44;5033254;28;19916;-79
2022/05/06 12:52:42;;;;;;;;;;;;;;;15.27;78.45;101184.19;5046440;28;20397;-79
2022/05/06 12:55:27;;;;;;;;;;;;;;;15.36;78.41;101182.97;5015673;28;19913;-78
2022/05/06 12:58:11;;;;;;;;;;;;;;;15.38;78.40;101179.91;5031977;28;19913;-80
2022/05/06 13:00:57;;;;;;;;;;;;;;;15.36;77.58;101190.38;5027731;28;19913;-78
2022/05/06 13:03:42;;;;;;;;;;;;;;;15.37;78.25;101190.06;5022418;28;20300;-81
2022/05/06 13:06:30;;;;;;;;;;;;;;;15.37;77.79;101186.50;5023000;28;19913;-79
2022/05/06 13:09:14;;;;;;;;;;;;;;;15.39;77.36;101186.97;5036433;28;19916;-80
2022/05/06 13:11:58;;;;;;;;;;;;;;;15.47;77.46;101182.56;5045206;28;19917;-81
2022/05/06 13:14:43;;;;;;;;;;;;;;;15.49;77.76;101181.06;5043233;28;19913;-80
2022/05/06 13:17:27;;;;;;;;;;;;;;;15.52;77.52;101182.38;5015281;28;19914;-80
2022/05/06 13:20:11;;;;;;;;;;;;;;;15.57;77.14;101179.44;5014993;28;19913;-81
2022/05/06 13:22:56;;;;;;;;;;;;;;;15.60;77.44;101176.00;5015098;28;19913;-80
2022/05/06 13:25:40;;;;;;;;;;;;;;;15.59;77.09;101177.16;5019039;28;19913;-81
2022/05/06 13:28:26;;;;;;;;;;;;;;;15.70;76.90;101175.56;5040407;28;19913;-80
2022/05/06 13:31:11;;;;;;;;;;;;;;;15.72;77.03;101178.78;5037522;28;19913;-80
2022/05/06 13:33:55;;;;;;;;;;;;;;;15.77;76.56;101182.13;5027106;28;19921;-78
2022/05/06 13:36:40;;;;;;;;;;;;;;;15.81;76.08;101187.72;5041785;28;19912;-81
2022/05/06 13:39:27;;;;;;;;;;;;;;;15.85;76.06;101182.38;5028188;28;19912;-81
2022/05/06 13:42:11;;;;;;;;;;;;;;;15.90;76.05;101180.19;5046516;28;19912;-80
2022/05/06 13:44:56;;;;;;;;;;;;;;;15.97;76.08;101174.97;5038156;28;20304;-81
2022/05/06 13:47:40;;;;;;;;;;;;;;;15.96;76.04;101173.34;5042906;28;19913;-80
2022/05/06 13:50:25;;;;;;;;;;;;;;;15.97;76.11;101174.16;5036288;28;19913;-81
2022/05/06 13:53:10;;;;;;;;;;;;;;;16.00;76.04;101176.25;5035284;28;19916;-78
2022/05/06 13:59:04;;;;;;;;;;;;;;;16.03;74.36;101173.63;5033071;28;19913;-81
2022/05/06 14:01:49;;;;;;;;;;;;;;;16.03;73.60;101168.13;5045855;28;19934;-78
2022/05/06 14:04:35;;;;;;;;;;;;;;;16.06;73.45;101170.19;5024205;28;19917;-80
2022/05/06 14:07:20;;;;;;;;;;;;;;;16.01;73.16;101159.44;5015265;28;19914;-81
2022/05/06 14:10:05;;;;;;;;;;;;;;;15.96;73.50;101156.91;5020079;28;20297;-81
2022/05/06 14:12:49;;;;;;;;;;;;;;;16.02;73.86;101160.22;5046046;28;19917;-80
2022/05/06 14:15:37;;;;;;;;;;;;;;;16.00;72.60;101157.81;5037276;28;19917;-81
2022/05/06 14:18:21;;;;;;;;;;;;;;;16.08;73.26;101156.94;5034406;28;19913;-79
2022/05/06 14:21:05;;;;;;;;;;;;;;;16.16;73.24;101160.69;5040362;28;19913;-80
2022/05/06 14:23:50;;;;;;;;;;;;;;;16.15;72.54;101148.91;5026982;28;19913;-80
2022/05/06 14:26:34;;;;;;;;;;;;;;;16.13;72.85;101151.22;5026983;28;19914;-81
2022/05/06 14:29:19;;;;;;;;;;;;;;;16.09;71.74;101144.81;5024434;28;19913;-78
2022/05/06 14:32:04;;;;;;;;;;;;;;;16.23;72.79;101149.97;5036639;28;19917;-81
2022/05/06 14:34:49;;;;;;;;;;;;;;;16.20;71.15;101148.69;5038622;28;19913;-78
2022/05/06 14:37:33;;;;;;;;;;;;;;;16.22;72.04;101151.91;5037529;28;19917;-79
2022/05/06 14:40:18;;;;;;;;;;;;;;;16.27;70.29;101153.63;5048943;23;19917;-82
2022/05/06 14:43:03;;;;;;;;;;;;;;;16.33;70.72;101148.69;5052987;28;19925;-79
2022/05/06 14:45:49;;;;;;;;;;;;;;;16.37;71.00;101150.41;5063473;28;19913;-80
2022/05/06 14:48:33;;;;;;;;;;;;;;;16.32;70.77;101147.09;5069556;28;19917;-80
2022/05/06 14:51:18;;;;;;;;;;;;;;;16.37;70.63;101144.13;5055239;28;20788;-80
2022/05/06 14:54:03;;;;;;;;;;;;;;;16.41;70.64;101151.31;5035691;28;19916;-80